Time;durP1;ratioP1;P1;durP2;ratioP2;P2;SDS_P1;SDS_P2;PMS_P1;PMS_P2;Temp;Humidity;BMP_temperature;BMP_pressure;BME280_temperature;BME280_humidity;BME280_pressure;Samples;Min_cycle;Max_cycle;Signal;HPM_P1;HPM_P2
2022/07/16 00:02:25;;;;;;;6.22;3.85;;;;;;;19.58;46.23;102053.38;4987049;28;123752;-65
2022/07/16 00:04:52;;;;;;;6.30;3.72;;;;;;;19.53;46.27;102038.50;4990444;28;114275;-65
2022/07/16 00:07:19;;;;;;;6.10;4.15;;;;;;;19.49;46.26;102047.75;4985729;28;113984;-64
2022/07/16 00:09:47;;;;;;;8.48;4.30;;;;;;;19.43;46.32;102043.63;4985865;28;124497;-65
2022/07/16 00:12:15;;;;;;;7.50;4.20;;;;;;;19.39;46.64;102050.16;4984975;28;124118;-64
2022/07/16 00:14:42;;;;;;;8.63;3.92;;;;;;;19.35;46.62;102045.94;4973840;28;114209;-65
2022/07/16 00:17:09;;;;;;;5.93;3.97;;;;;;;19.30;46.95;102042.66;4988432;28;115705;-64
2022/07/16 00:19:36;;;;;;;7.85;4.43;;;;;;;19.24;46.75;102039.41;4988567;28;124821;-65
2022/07/16 00:22:04;;;;;;;8.05;3.95;;;;;;;19.21;46.88;102039.59;4990786;28;123735;-64
2022/07/16 00:24:31;;;;;;;8.02;4.38;;;;;;;19.18;46.80;102039.78;4972410;28;112956;-64
2022/07/16 00:26:58;;;;;;;5.65;3.80;;;;;;;19.15;46.92;102039.97;4986490;28;113604;-65
2022/07/16 00:29:25;;;;;;;6.53;4.00;;;;;;;19.12;46.89;102040.19;4988165;28;124516;-64
2022/07/16 00:31:54;;;;;;;5.88;4.28;;;;;;;19.09;47.20;102040.34;4986762;28;124207;-64
2022/07/16 00:34:22;;;;;;;5.82;4.03;;;;;;;19.05;46.98;102033.47;4990035;28;114435;-64
2022/07/16 00:36:50;;;;;;;5.85;3.92;;;;;;;19.04;47.11;102042.47;4987998;28;115031;-64
2022/07/16 00:39:17;;;;;;;5.88;3.90;;;;;;;19.01;47.06;102031.94;4986542;28;124766;-64
2022/07/16 00:41:47;;;;;;;8.77;3.97;;;;;;;18.99;47.21;102025.78;4987716;28;125336;-64
2022/07/16 00:44:17;;;;;;;5.32;4.47;;;;;;;18.98;47.43;102026.72;4985989;28;114470;-64
2022/07/16 00:46:46;;;;;;;5.60;4.03;;;;;;;18.96;47.51;102039.38;4985186;28;113943;-64
2022/07/16 00:49:14;;;;;;;5.43;4.10;;;;;;;18.96;47.57;102034.03;4988645;28;124232;-64
2022/07/16 00:51:45;;;;;;;8.57;4.45;;;;;;;18.95;47.76;102037.66;4987925;28;123906;-64
2022/07/16 00:54:12;;;;;;;6.75;4.53;;;;;;;18.95;47.90;102037.66;4986585;28;114201;-64
2022/07/16 00:56:40;;;;;;;8.60;4.72;;;;;;;18.96;47.97;102039.38;4972052;28;113710;-64
2022/07/16 00:59:07;;;;;;;6.35;4.45;;;;;;;18.95;48.04;102032.28;4986600;28;124218;-64
2022/07/16 01:01:35;;;;;;;5.93;4.07;;;;;;;18.97;48.24;102035.75;4988766;28;123660;-64
2022/07/16 01:04:05;;;;;;;6.57;4.32;;;;;;;18.97;48.09;102025.03;4984999;28;115248;-64
2022/07/16 01:06:34;;;;;;;6.45;4.22;;;;;;;18.98;48.12;102032.09;4987316;28;114825;-64
2022/07/16 01:09:02;;;;;;;9.05;4.53;;;;;;;18.99;48.22;102023.09;4986693;28;124336;-64
2022/07/16 01:11:31;;;;;;;6.82;4.30;;;;;;;19.01;48.41;102023.88;4971560;28;124393;-64
2022/07/16 01:14:02;;;;;;;8.32;3.83;;;;;;;19.02;48.17;102022.91;4987518;28;114633;-64
2022/07/16 01:16:29;;;;;;;5.10;4.35;;;;;;;19.05;48.18;102028.09;4987588;28;114104;-64
2022/07/16 01:18:57;;;;;;;5.47;4.20;;;;;;;19.07;48.38;102020.78;4958138;28;123032;-64
2022/07/16 01:21:24;;;;;;;5.78;4.00;;;;;;;19.08;48.24;102027.91;4988292;28;123715;-64
2022/07/16 01:23:51;;;;;;;7.70;4.03;;;;;;;19.11;48.45;102025.00;4987278;28;114268;-64
2022/07/16 01:26:18;;;;;;;7.50;4.20;;;;;;;19.15;48.39;102029.22;4987509;28;113989;-64
2022/07/16 01:28:46;;;;;;;6.20;3.83;;;;;;;19.15;48.09;102023.84;4985724;28;124103;-64
2022/07/16 01:31:13;;;;;;;6.05;4.10;;;;;;;19.17;48.33;102019.25;4984618;28;124105;-64
2022/07/16 01:33:41;;;;;;;8.80;3.88;;;;;;;19.20;48.43;102021.75;4973323;28;114331;-64
2022/07/16 01:36:12;;;;;;;6.25;3.88;;;;;;;19.22;48.66;102022.50;4986363;28;113743;-64
2022/07/16 01:38:42;;;;;;;5.78;4.05;;;;;;;19.23;48.53;102018.00;4986258;28;123980;-64
2022/07/16 01:41:11;;;;;;;6.95;4.28;;;;;;;19.24;48.67;102017.91;4968944;28;123537;-65
2022/07/16 01:43:39;;;;;;;5.78;4.03;;;;;;;19.27;48.62;102011.50;4985589;28;114436;-65
2022/07/16 01:46:06;;;;;;;6.63;3.92;;;;;;;19.29;48.42;102014.06;4970400;28;113362;-65
2022/07/16 01:48:34;;;;;;;6.80;4.03;;;;;;;19.30;48.46;102016.66;4974594;28;122833;-65
2022/07/16 01:51:01;;;;;;;7.72;4.10;;;;;;;19.31;48.61;102017.50;4985853;28;123741;-64
2022/07/16 01:53:29;;;;;;;4.53;3.63;;;;;;;19.34;48.48;102022.69;4986371;28;115913;-65
2022/07/16 01:55:58;;;;;;;4.75;3.88;;;;;;;19.33;48.55;102026.38;4990200;28;115213;-64
2022/07/16 01:58:26;;;;;;;6.35;3.83;;;;;;;19.34;48.61;102022.69;4985919;28;124277;-64
2022/07/16 02:00:53;;;;;;;6.50;3.78;;;;;;;19.36;48.66;102023.47;4961884;28;123303;-64
2022/07/16 02:03:21;;;;;;;5.70;4.10;;;;;;;19.38;48.74;102008.13;4986895;28;114639;-64
2022/07/16 02:05:49;;;;;;;5.45;3.65;;;;;;;19.39;48.84;102020.59;4972939;28;113476;-64
2022/07/16 02:08:16;;;;;;;6.90;3.83;;;;;;;19.40;48.69;102022.31;4989255;28;124183;-65
2022/07/16 02:10:43;;;;;;;6.28;4.32;;;;;;;19.40;48.82;102014.25;4992992;28;123613;-64
2022/07/16 02:13:11;;;;;;;7.68;3.90;;;;;;;19.39;48.83;102025.97;4989182;28;114255;-64
2022/07/16 02:15:38;;;;;;;8.27;4.20;;;;;;;19.41;48.89;102024.03;4990596;28;114002;-64
2022/07/16 02:18:05;;;;;;;6.25;3.80;;;;;;;19.43;48.79;102022.13;4982821;28;124078;-64
2022/07/16 02:20:33;;;;;;;5.85;3.92;;;;;;;19.42;48.98;102015.00;4988459;28;124199;-64
2022/07/16 02:23:00;;;;;;;9.18;4.60;;;;;;;19.44;48.79;102018.50;4987854;28;114448;-64
2022/07/16 02:25:27;;;;;;;8.18;4.55;;;;;;;19.44;48.81;102022.03;4988072;28;114296;-64
2022/07/16 02:28:06;;;;;;;6.75;3.95;;;;;;;19.45;48.93;102025.56;4970095;28;124158;-64
2022/07/16 02:30:35;;;;;;;6.95;3.90;;;;;;;19.46;48.85;102021.94;4975476;28;123789;-64
2022/07/16 02:33:04;;;;;;;6.13;3.88;;;;;;;19.47;48.81;102023.66;4991685;28;114626;-64
2022/07/16 02:35:32;;;;;;;6.53;4.00;;;;;;;19.47;48.71;102018.28;4989144;28;113860;-64
2022/07/16 02:37:59;;;;;;;7.43;4.20;;;;;;;19.49;48.82;102019.03;4989649;28;124824;-64
2022/07/16 02:40:28;;;;;;;6.80;4.10;;;;;;;19.49;48.93;102010.97;4991373;28;123812;-64
2022/07/16 02:42:55;;;;;;;6.45;4.25;;;;;;;19.50;48.99;102012.72;4990666;28;115027;-64
2022/07/16 02:45:23;;;;;;;4.80;3.70;;;;;;;19.53;48.98;102017.88;4958135;28;114768;-64
2022/07/16 02:47:50;;;;;;;6.90;4.18;;;;;;;19.54;48.83;102014.25;4987283;28;123826;-64
2022/07/16 02:50:18;;;;;;;6.95;4.28;;;;;;;19.54;48.77;102014.25;4985844;28;123937;-64
2022/07/16 02:52:46;;;;;;;7.15;4.30;;;;;;;19.54;48.88;102014.25;4986667;28;114319;-64
2022/07/16 02:55:13;;;;;;;7.65;4.13;;;;;;;19.54;48.85;102014.25;4990371;28;113855;-64
2022/07/16 02:57:40;;;;;;;4.95;3.92;;;;;;;19.55;48.87;102010.59;4987504;28;124079;-64
2022/07/16 03:00:11;;;;;;;4.88;3.90;;;;;;;19.54;48.84;102008.88;4991613;28;124789;-64
2022/07/16 03:02:39;;;;;;;6.35;4.32;;;;;;;19.55;48.99;102005.22;4987268;28;114677;-64
2022/07/16 03:05:08;;;;;;;6.30;4.13;;;;;;;19.57;49.12;102003.31;4988713;28;114482;-64
2022/07/16 03:07:35;;;;;;;6.47;4.47;;;;;;;19.57;48.95;101997.03;4956050;28;123994;-64
2022/07/16 03:10:05;;;;;;;7.50;3.95;;;;;;;19.55;48.88;101994.47;4990361;28;124154;-64
2022/07/16 03:12:32;;;;;;;6.40;4.10;;;;;;;19.56;48.78;101996.19;4958301;28;113277;-64
2022/07/16 03:15:03;;;;;;;5.85;4.32;;;;;;;19.56;48.89;102001.56;4989250;28;114742;-64
2022/07/16 03:17:31;;;;;;;4.85;3.90;;;;;;;19.57;48.91;102002.41;4986672;28;124739;-64
2022/07/16 03:19:58;;;;;;;6.32;4.10;;;;;;;19.59;49.27;101996.00;4989569;28;124319;-64
2022/07/16 03:22:25;;;;;;;7.30;4.00;;;;;;;19.60;49.10;102008.47;4989199;28;115839;-64
2022/07/16 03:24:52;;;;;;;5.75;4.03;;;;;;;19.62;49.05;102011.91;4991456;28;114303;-64
2022/07/16 03:27:20;;;;;;;8.27;4.20;;;;;;;19.65;48.85;102016.25;4973038;28;122880;-64
2022/07/16 03:29:47;;;;;;;6.07;4.38;;;;;;;19.65;48.91;102017.09;4986431;28;123898;-64
2022/07/16 03:32:14;;;;;;;6.63;3.90;;;;;;;19.69;48.99;102016.91;4971097;28;115906;-64
2022/07/16 03:34:42;;;;;;;7.00;4.60;;;;;;;19.70;49.11;102021.31;4989855;28;114680;-64
2022/07/16 03:37:09;;;;;;;5.85;4.10;;;;;;;19.73;48.70;102018.47;4972413;28;123065;-64
2022/07/16 03:39:36;;;;;;;5.85;4.22;;;;;;;19.75;48.99;102029.97;4988181;28;123973;-64
2022/07/16 03:42:03;;;;;;;6.47;4.15;;;;;;;19.77;49.04;102014.59;4987299;28;114752;-64
2022/07/16 03:44:30;;;;;;;6.63;4.07;;;;;;;19.78;49.00;102027.09;4985825;28;114902;-64
2022/07/16 03:46:59;;;;;;;7.03;4.30;;;;;;;19.79;48.77;102034.19;4980324;28;124192;-64
2022/07/16 03:49:26;;;;;;;7.45;4.25;;;;;;;19.80;48.84;102030.53;4985443;28;123875;-64
2022/07/16 03:51:53;;;;;;;6.15;4.35;;;;;;;19.82;48.97;102036.69;4990737;28;114784;-64
2022/07/16 03:54:20;;;;;;;5.88;3.92;;;;;;;19.83;49.02;102035.69;4989306;28;114232;-64
2022/07/16 03:56:48;;;;;;;6.05;3.75;;;;;;;19.84;48.84;102037.44;4972652;28;124093;-64
2022/07/16 03:59:15;;;;;;;9.70;4.10;;;;;;;19.85;48.94;102039.16;4958819;28;123241;-64
2022/07/16 04:01:42;;;;;;;7.18;3.80;;;;;;;19.87;48.75;102047.97;4988523;28;114407;-64
2022/07/16 04:04:09;;;;;;;7.25;3.88;;;;;;;19.88;48.80;102044.34;4990150;28;114403;-64
2022/07/16 04:06:36;;;;;;;5.65;3.80;;;;;;;19.89;48.66;102046.09;4989950;28;124044;-64
2022/07/16 04:09:04;;;;;;;6.88;3.60;;;;;;;19.89;48.79;102046.09;4990002;28;123683;-64
2022/07/16 04:11:31;;;;;;;7.53;3.35;;;;;;;19.89;48.63;102046.09;4988636;28;114254;-64
2022/07/16 04:14:00;;;;;;;4.82;3.50;;;;;;;19.89;48.93;102054.16;4971807;28;113898;-64
2022/07/16 04:16:27;;;;;;;5.22;3.63;;;;;;;19.88;48.93;102049.72;4985934;28;124717;-65
2022/07/16 04:18:54;;;;;;;5.15;3.70;;;;;;;19.88;49.00;102052.41;4983370;28;124510;-65
2022/07/16 04:21:22;;;;;;;6.68;3.55;;;;;;;19.88;48.79;102055.09;4987430;28;115287;-65
2022/07/16 04:23:49;;;;;;;5.57;3.88;;;;;;;19.87;48.85;102047.97;4957211;28;114065;-65
2022/07/16 04:26:16;;;;;;;6.80;3.63;;;;;;;19.86;49.17;102051.66;4987909;28;124117;-65
2022/07/16 04:28:43;;;;;;;6.75;3.75;;;;;;;19.86;49.05;102046.28;4986539;28;124656;-65
2022/07/16 04:31:10;;;;;;;5.60;3.70;;;;;;;19.86;49.17;102046.28;4985120;28;114645;-65
2022/07/16 04:33:37;;;;;;;8.13;3.50;;;;;;;19.85;49.22;102055.28;4987488;28;114022;-65
2022/07/16 04:36:05;;;;;;;7.82;3.67;;;;;;;19.86;49.34;102050.78;4969977;28;123979;-65
2022/07/16 04:38:32;;;;;;;7.13;4.07;;;;;;;19.86;49.46;102062.41;4989874;28;125095;-65
2022/07/16 04:41:01;;;;;;;7.13;3.90;;;;;;;19.85;49.60;102066.03;4987744;28;115355;-65
2022/07/16 04:43:28;;;;;;;5.97;3.47;;;;;;;19.84;49.54;102069.72;4982702;28;114406;-64
2022/07/16 04:45:55;;;;;;;6.32;3.72;;;;;;;19.85;49.61;102076.78;4984258;28;124191;-65
2022/07/16 04:48:23;;;;;;;5.65;3.92;;;;;;;19.85;49.84;102076.78;4986638;28;124875;-65
2022/07/16 04:50:51;;;;;;;5.75;3.85;;;;;;;19.85;49.84;102076.78;4989887;28;114429;-64
2022/07/16 04:53:18;;;;;;;7.50;4.18;;;;;;;19.88;50.01;102081.97;4987408;28;114719;-63
2022/07/16 04:55:45;;;;;;;5.95;4.07;;;;;;;19.93;50.66;102079.88;4985524;28;124767;-64
2022/07/16 04:58:12;;;;;;;8.10;4.25;;;;;;;19.98;50.66;102088.47;4986295;28;124003;-65
2022/07/16 05:00:40;;;;;;;6.88;3.83;;;;;;;20.05;50.73;102088.09;4973181;28;115109;-65
2022/07/16 05:03:07;;;;;;;4.57;3.90;;;;;;;20.11;50.69;102091.22;4984946;28;114086;-64
2022/07/16 05:05:37;;;;;;;7.07;3.92;;;;;;;20.19;51.03;102085.34;4987476;28;124292;-65
2022/07/16 05:08:08;;;;;;;6.20;4.30;;;;;;;20.25;50.99;102095.72;4968478;28;123856;-65
2022/07/16 05:10:35;;;;;;;7.32;4.63;;;;;;;20.32;50.93;102091.63;4989454;28;115119;-64
2022/07/16 05:13:03;;;;;;;7.22;4.45;;;;;;;20.35;51.21;102096.81;4986847;28;115248;-64
2022/07/16 05:15:31;;;;;;;8.82;4.60;;;;;;;20.40;51.32;102093.84;4989213;28;124162;-65
2022/07/16 05:17:59;;;;;;;10.55;4.40;;;;;;;20.47;51.56;102099.66;4989068;28;124045;-64
2022/07/16 05:20:26;;;;;;;8.40;4.80;;;;;;;20.51;51.64;102095.81;4969225;28;113290;-64
2022/07/16 05:22:54;;;;;;;10.02;4.47;;;;;;;20.55;51.78;102097.31;4988616;28;113763;-64
2022/07/16 05:25:22;;;;;;;8.52;3.97;;;;;;;20.57;51.96;102084.63;4988438;28;124102;-64
2022/07/16 05:27:49;;;;;;;6.38;4.05;;;;;;;20.60;52.27;102097.91;4971691;28;122593;-65
2022/07/16 05:30:17;;;;;;;7.25;3.72;;;;;;;20.64;52.40;102102.09;4986614;28;114055;-65
2022/07/16 05:32:45;;;;;;;5.15;3.50;;;;;;;20.66;52.46;102105.56;4988358;28;113752;-65
2022/07/16 05:35:14;;;;;;;8.77;4.20;;;;;;;20.69;52.60;102105.38;4986807;28;124175;-64
2022/07/16 05:37:43;;;;;;;8.65;3.83;;;;;;;20.72;52.91;102110.56;4970696;28;122742;-65
2022/07/16 05:40:12;;;;;;;6.70;4.00;;;;;;;20.76;52.73;102112.06;4986209;28;115037;-65
2022/07/16 05:42:39;;;;;;;7.32;3.60;;;;;;;20.79;52.64;102111.88;4971848;28;114394;-64
2022/07/16 05:45:14;;;;;;;5.60;3.60;;;;;;;20.83;52.73;102117.03;4958901;28;124762;-63
2022/07/16 05:47:42;;;;;;;6.72;4.35;;;;;;;20.87;52.88;102118.53;4989259;28;124657;-63
2022/07/16 05:50:09;;;;;;;6.35;3.45;;;;;;;20.89;52.83;102122.88;4959026;28;113948;-63
2022/07/16 05:52:37;;;;;;;4.30;3.20;;;;;;;20.94;53.00;102130.63;4987907;28;114040;-63
2022/07/16 05:55:04;;;;;;;7.55;3.70;;;;;;;20.97;53.18;102125.88;4990416;28;123878;-63
2022/07/16 05:57:32;;;;;;;5.60;3.67;;;;;;;21.02;53.04;102128.28;4987058;28;124017;-64
2022/07/16 05:59:59;;;;;;;7.57;3.67;;;;;;;21.06;53.17;102127.09;4990944;28;115316;-64
2022/07/16 06:02:26;;;;;;;4.30;3.40;;;;;;;21.12;53.32;102132.03;4990493;28;114960;-63
2022/07/16 06:04:53;;;;;;;5.78;3.50;;;;;;;21.17;53.29;102127.22;4991403;28;124723;-64
2022/07/16 06:07:20;;;;;;;6.10;3.28;;;;;;;21.25;53.38;102139.25;4973844;28;123834;-64
2022/07/16 06:09:47;;;;;;;5.70;2.50;;;;;;;21.32;53.23;102135.19;4989733;28;114417;-64
2022/07/16 06:12:16;;;;;;;5.93;2.35;;;;;;;21.38;52.92;102140.16;4972694;28;114541;-64
2022/07/16 06:14:43;;;;;;;4.40;2.50;;;;;;;21.44;52.94;102144.25;4958387;28;122499;-66
2022/07/16 06:17:10;;;;;;;3.83;1.80;;;;;;;21.50;52.91;102150.09;4991279;28;123834;-64
2022/07/16 06:19:41;;;;;;;6.00;2.20;;;;;;;21.56;52.73;102144.25;4973544;28;113304;-64
2022/07/16 06:22:09;;;;;;;2.88;1.58;;;;;;;21.65;52.62;102147.28;4989989;28;114683;-64
2022/07/16 06:24:37;;;;;;;2.95;1.65;;;;;;;21.71;52.43;102157.63;4973613;28;122039;-65
2022/07/16 06:27:04;;;;;;;3.75;1.70;;;;;;;21.79;52.28;102152.53;4990309;28;124453;-64
2022/07/16 06:29:31;;;;;;;4.88;1.70;;;;;;;21.87;52.10;102152.88;4990186;28;114054;-64
2022/07/16 06:31:58;;;;;;;3.72;1.70;;;;;;;21.97;52.02;102159.31;4971856;28;114698;-64
2022/07/16 06:34:26;;;;;;;4.97;1.40;;;;;;;22.04;51.78;102158.84;4988680;28;124543;-64
2022/07/16 06:36:53;;;;;;;3.35;1.38;;;;;;;22.11;51.61;102158.31;4987189;28;123920;-64
2022/07/16 06:39:20;;;;;;;3.05;1.52;;;;;;;22.20;51.52;102159.47;4989098;28;114694;-64
2022/07/16 06:41:47;;;;;;;3.60;1.40;;;;;;;22.32;51.44;102169.41;4988312;28;114348;-64
2022/07/16 06:44:14;;;;;;;5.75;1.40;;;;;;;22.43;50.85;102167.72;4988680;28;124292;-64
2022/07/16 06:46:41;;;;;;;4.00;1.42;;;;;;;22.51;50.68;102168.03;4990270;28;124538;-64
2022/07/16 06:49:09;;;;;;;3.00;1.23;;;;;;;22.58;50.47;102174.69;4986229;28;115616;-65
2022/07/16 06:51:36;;;;;;;3.47;1.35;;;;;;;22.66;50.39;102172.28;4990851;28;115624;-64
2022/07/16 06:54:03;;;;;;;2.38;1.30;;;;;;;22.74;50.15;102180.66;4989148;28;124951;-65
2022/07/16 06:56:30;;;;;;;2.80;1.17;;;;;;;22.84;50.02;102185.38;4988927;28;124164;-64
2022/07/16 06:58:58;;;;;;;4.50;1.20;;;;;;;22.93;49.67;102181.97;4988588;28;114288;-65
2022/07/16 07:01:25;;;;;;;1.92;0.80;;;;;;;23.04;49.14;102184.75;4989222;28;114030;-64
2022/07/16 07:03:52;;;;;;;3.65;1.05;;;;;;;23.15;48.63;102183.03;4991165;28;124776;-65
2022/07/16 07:06:19;;;;;;;2.65;1.33;;;;;;;23.25;48.03;102200.28;4988995;28;124397;-64
2022/07/16 07:08:47;;;;;;;3.15;1.10;;;;;;;23.31;48.10;102197.09;4985937;28;113872;-64
2022/07/16 07:11:21;;;;;;;2.95;1.27;;;;;;;23.42;48.19;102202.53;4989096;28;113977;-65
2022/07/16 07:13:49;;;;;;;2.63;1.25;;;;;;;23.54;47.97;102210.66;4958438;28;123007;-64
2022/07/16 07:16:16;;;;;;;2.80;1.05;;;;;;;23.62;47.84;102213.63;4973123;28;123786;-65
2022/07/16 07:18:44;;;;;;;4.13;1.15;;;;;;;23.69;47.11;102220.28;4988217;28;114678;-64
2022/07/16 07:21:11;;;;;;;4.63;1.30;;;;;;;23.75;46.77;102214.38;4988559;28;114274;-65
2022/07/16 07:23:39;;;;;;;3.90;1.13;;;;;;;23.79;46.61;102215.91;4988966;28;124041;-65
2022/07/16 07:26:06;;;;;;;2.30;1.10;;;;;;;23.83;46.73;102222.78;4972569;28;124048;-64
2022/07/16 07:28:33;;;;;;;2.45;0.93;;;;;;;23.89;46.38;102222.28;4972904;28;113634;-65
2022/07/16 07:31:00;;;;;;;2.90;1.00;;;;;;;23.91;46.25;102227.59;4989614;28;113701;-65
2022/07/16 07:33:27;;;;;;;4.90;1.25;;;;;;;23.94;46.38;102234.59;4972701;28;123528;-64
2022/07/16 07:35:55;;;;;;;3.78;1.10;;;;;;;23.96;46.07;102227.22;4989492;28;123885;-64
2022/07/16 07:38:22;;;;;;;2.78;1.20;;;;;;;23.93;45.99;102232.88;4989142;28;115128;-64
2022/07/16 07:40:49;;;;;;;2.88;1.10;;;;;;;23.93;45.72;102232.88;4991804;28;115286;-64
2022/07/16 07:43:19;;;;;;;3.30;1.20;;;;;;;23.93;45.74;102233.75;4990780;28;124894;-65
2022/07/16 07:45:46;;;;;;;3.75;1.02;;;;;;;23.97;45.84;102239.78;4973161;28;122958;-64
2022/07/16 07:48:13;;;;;;;2.72;1.08;;;;;;;24.02;45.16;102238.41;4970563;28;114135;-64
2022/07/16 07:50:41;;;;;;;4.40;1.08;;;;;;;24.08;45.05;102237.06;4957364;28;112742;-65
2022/07/16 07:53:08;;;;;;;2.75;1.38;;;;;;;24.15;44.73;102243.72;4989727;28;124515;-64
2022/07/16 07:55:35;;;;;;;2.78;1.08;;;;;;;24.26;44.61;102243.72;4988856;28;124322;-65
2022/07/16 07:58:02;;;;;;;2.92;1.10;;;;;;;24.35;44.15;102243.94;4990443;28;114580;-65
2022/07/16 08:00:30;;;;;;;2.83;0.95;;;;;;;24.43;44.16;102241.44;4981531;28;114389;-64
2022/07/16 08:02:58;;;;;;;2.08;1.10;;;;;;;24.49;43.96;102236.41;4988330;28;124373;-64
2022/07/16 08:05:25;;;;;;;5.07;1.23;;;;;;;24.57;44.03;102238.50;4973468;28;122799;-64
2022/07/16 08:07:53;;;;;;;4.13;1.20;;;;;;;24.63;43.53;102259.66;4971568;28;114720;-64
2022/07/16 08:10:20;;;;;;;2.13;1.20;;;;;;;24.67;44.28;102244.88;4990852;28;114237;-64
2022/07/16 08:12:48;;;;;;;4.32;1.10;;;;;;;24.74;43.58;102249.81;4972719;28;123261;-64
2022/07/16 08:15:15;;;;;;;4.00;1.00;;;;;;;24.73;43.09;102250.78;4990803;28;123709;-64
2022/07/16 08:17:42;;;;;;;3.05;1.23;;;;;;;24.62;42.67;102257.97;4988653;28;114266;-64
2022/07/16 08:20:10;;;;;;;2.45;1.08;;;;;;;24.55;42.33;102256.75;4972905;28;113997;-64
2022/07/16 08:22:37;;;;;;;2.55;1.08;;;;;;;24.46;42.35;102257.47;4989833;28;124796;-64
2022/07/16 08:27:51;;;;;;;2.22;0.90;;;;;;;24.45;42.07;102256.59;4968838;28;114420;-64
2022/07/16 08:30:19;;;;;;;1.95;0.88;;;;;;;24.53;42.22;102260.56;4977651;28;114894;-64
2022/07/16 08:32:46;;;;;;;1.52;0.80;;;;;;;24.61;41.80;102267.06;4989241;28;123978;-65
2022/07/16 08:35:14;;;;;;;3.70;0.93;;;;;;;24.59;41.70;102269.03;4989716;28;123660;-64
2022/07/16 08:37:43;;;;;;;2.75;1.10;;;;;;;24.56;40.99;102269.28;4970830;28;113186;-64
2022/07/16 08:40:14;;;;;;;1.75;0.93;;;;;;;24.54;40.74;102270.41;4989595;28;113894;-65
2022/07/16 08:42:42;;;;;;;3.33;1.00;;;;;;;24.49;40.48;102273.47;4987921;28;124482;-64
2022/07/16 08:45:11;;;;;;;1.73;0.82;;;;;;;24.51;40.73;102276.91;4987791;28;124551;-64
2022/07/16 08:47:39;;;;;;;2.58;0.98;;;;;;;24.51;40.73;102293.16;4989588;28;114636;-64
2022/07/16 08:50:09;;;;;;;1.73;0.70;;;;;;;24.53;40.25;102296.63;4989839;28;114369;-64
2022/07/16 08:52:40;;;;;;;2.67;1.30;;;;;;;24.60;40.12;102292.44;4986857;28;124697;-65
2022/07/16 08:55:08;;;;;;;2.72;0.88;;;;;;;24.67;39.96;102304.47;4978055;28;122076;-64
2022/07/16 08:57:37;;;;;;;2.33;1.00;;;;;;;24.71;39.61;102309.66;4968628;28;113780;-64
2022/07/16 09:00:07;;;;;;;1.77;0.80;;;;;;;24.70;39.47;102299.81;4989807;28;114516;-64
2022/07/16 09:02:35;;;;;;;3.13;1.20;;;;;;;24.64;39.85;102310.16;4971987;28;124109;-64
2022/07/16 09:05:04;;;;;;;3.63;1.10;;;;;;;24.59;39.97;102312.38;4987327;28;123748;-64
2022/07/16 09:07:31;;;;;;;3.47;1.00;;;;;;;24.53;39.78;102312.88;4987794;28;114630;-64
2022/07/16 09:09:59;;;;;;;1.92;1.23;;;;;;;24.44;39.42;102319.88;4988869;28;113984;-64
2022/07/16 09:12:36;;;;;;;3.40;1.00;;;;;;;24.34;39.37;102323.47;4972431;28;123443;-64
2022/07/16 09:15:29;;;;;;;3.83;1.10;;;;;;;24.33;39.37;102321.72;4988249;28;124612;-65
2022/07/16 09:18:14;;;;;;;3.42;1.08;;;;;;;24.41;39.58;102330.09;4989831;28;115383;-64
2022/07/16 09:20:44;;;;;;;2.03;0.80;;;;;;;24.51;39.41;102331.09;4994250;28;114963;-64
2022/07/16 09:23:20;;;;;;;2.03;0.90;;;;;;;24.63;39.49;102332.81;4990506;28;124467;-65
2022/07/16 09:25:53;;;;;;;2.05;0.90;;;;;;;24.72;39.07;102338.50;4975666;28;122740;-64
2022/07/16 09:28:23;;;;;;;2.28;0.82;;;;;;;24.80;38.85;102322.44;4991024;28;114080;-64
2022/07/16 09:30:50;;;;;;;5.05;1.10;;;;;;;24.85;39.12;102331.06;4993952;28;114093;-64
2022/07/16 09:33:21;;;;;;;1.27;0.80;;;;;;;24.93;39.40;102330.44;4974938;28;124015;-65
2022/07/16 09:36:06;;;;;;;3.90;0.98;;;;;;;25.05;39.17;102335.72;4991292;28;124300;-64
2022/07/16 09:38:52;;;;;;;2.65;1.17;;;;;;;25.19;38.97;102348.09;4989948;28;114187;-65
2022/07/16 09:41:22;;;;;;;4.75;1.02;;;;;;;25.30;38.58;102344.53;4977351;28;96973;-65
2022/07/16 09:43:50;;;;;;;2.05;0.77;;;;;;;25.39;38.89;102338.34;4989808;28;124476;-64
2022/07/16 09:46:23;;;;;;;3.58;0.63;;;;;;;25.52;38.51;102337.28;4993284;28;124240;-64
2022/07/16 09:48:51;;;;;;;2.97;0.90;;;;;;;25.58;37.87;102336.75;4972226;28;114635;-64
2022/07/16 09:51:22;;;;;;;2.75;0.90;;;;;;;25.56;37.64;102336.00;4994040;28;113965;-65
2022/07/16 09:53:51;;;;;;;2.83;0.80;;;;;;;25.53;37.32;102344.44;4991726;28;125544;-64
2022/07/16 09:56:25;;;;;;;3.35;0.80;;;;;;;25.54;37.05;102335.28;4990680;28;122993;-64
2022/07/16 09:58:55;;;;;;;1.83;0.80;;;;;;;25.57;36.82;102332.31;4990664;28;114293;-64
2022/07/16 10:01:32;;;;;;;1.70;0.75;;;;;;;25.60;36.99;102340.22;4975905;28;113389;-64
2022/07/16 10:04:00;;;;;;;1.98;0.90;;;;;;;25.64;37.84;102341.66;4991541;28;124469;-64
2022/07/16 10:06:28;;;;;;;2.70;1.00;;;;;;;25.72;37.33;102344.56;4973903;28;124586;-63
2022/07/16 10:08:55;;;;;;;3.10;1.00;;;;;;;25.80;36.95;102341.19;4991182;28;115530;-64
2022/07/16 10:11:23;;;;;;;3.58;0.90;;;;;;;25.91;36.78;102348.41;4975169;28;114590;-65
2022/07/16 10:13:51;;;;;;;1.63;0.82;;;;;;;25.97;36.75;102347.91;4972562;28;124056;-65
2022/07/16 10:16:40;;;;;;;2.40;1.08;;;;;;;25.95;36.55;102360.75;4990318;28;124287;-65
2022/07/16 10:19:08;;;;;;;1.65;0.85;;;;;;;25.93;36.13;102357.31;4991243;28;115120;-65
2022/07/16 10:21:35;;;;;;;3.78;0.82;;;;;;;25.95;35.77;102371.63;4992509;28;113888;-64
2022/07/16 10:24:09;;;;;;;4.07;0.90;;;;;;;25.96;35.95;102362.50;4974777;28;123048;-64
2022/07/16 10:26:37;;;;;;;1.40;0.80;;;;;;;26.00;36.05;102355.81;4990293;28;123616;-64
2022/07/16 10:29:04;;;;;;;2.97;0.77;;;;;;;26.04;35.50;102359.97;4990269;28;114629;-64
2022/07/16 10:31:41;;;;;;;1.98;1.00;;;;;;;26.08;35.61;102361.41;4991755;28;114082;-64
2022/07/16 10:34:15;;;;;;;5.07;0.80;;;;;;;26.12;35.17;102373.72;4991997;28;124119;-64
2022/07/16 10:36:54;;;;;;;2.55;0.90;;;;;;;26.06;34.57;102363.41;4971823;28;124037;-64
2022/07/16 10:39:24;;;;;;;2.92;0.82;;;;;;;26.01;34.93;102371.09;4988161;28;114457;-64
2022/07/16 10:42:02;;;;;;;2.40;0.90;;;;;;;26.01;35.22;102371.97;4972247;28;113780;-64
2022/07/16 10:44:51;;;;;;;2.03;0.80;;;;;;;26.00;35.31;102375.66;4991962;28;123935;-64
2022/07/16 10:47:19;;;;;;;1.58;0.80;;;;;;;26.01;35.31;102376.50;4992141;28;124191;-64
2022/07/16 10:49:46;;;;;;;3.20;0.82;;;;;;;26.02;35.08;102384.53;4974037;28;113142;-64
2022/07/16 10:52:16;;;;;;;1.60;0.70;;;;;;;26.05;35.10;102383.44;4991391;28;113867;-65
2022/07/16 10:55:04;;;;;;;3.67;1.10;;;;;;;26.07;34.75;102386.88;4974145;28;123020;-65
2022/07/16 10:57:37;;;;;;;2.92;0.90;;;;;;;26.07;34.45;102386.88;4974019;28;124427;-65
2022/07/16 11:00:06;;;;;;;1.13;0.60;;;;;;;26.08;34.79;102388.56;4991359;28;115121;-65
2022/07/16 11:02:41;;;;;;;1.88;0.93;;;;;;;26.06;34.69;102385.13;4990104;28;115332;-64
2022/07/16 11:05:30;;;;;;;2.60;0.90;;;;;;;26.10;35.42;102392.00;4989634;28;124056;-65
2022/07/16 11:08:10;;;;;;;2.05;1.00;;;;;;;26.13;35.06;102391.75;4959832;28;123226;-64
2022/07/16 11:10:39;;;;;;;2.53;0.90;;;;;;;26.16;34.98;102402.38;4992063;28;114380;-64
2022/07/16 11:13:11;;;;;;;2.53;0.70;;;;;;;26.18;34.40;102400.38;4989291;28;114819;-64
2022/07/16 11:15:39;;;;;;;3.22;0.82;;;;;;;26.21;34.57;102400.09;4991818;28;124370;-64
2022/07/16 11:18:15;;;;;;;2.78;0.90;;;;;;;26.25;34.07;102397.09;4991144;28;123918;-64
2022/07/16 11:20:44;;;;;;;1.83;0.90;;;;;;;26.26;33.96;102387.94;4991947;28;114990;-64
2022/07/16 11:23:12;;;;;;;2.83;0.70;;;;;;;26.28;33.96;102396.84;4971515;28;113835;-64
2022/07/16 11:25:56;;;;;;;2.25;0.65;;;;;;;26.36;34.37;102402.47;4990412;28;123957;-64
2022/07/16 11:28:23;;;;;;;1.67;0.80;;;;;;;26.41;33.99;102395.63;4988451;28;124155;-64